createdAt,value
2022-08-14T00:02:51.499Z,101242.41
2022-08-14T00:08:15.191Z,101243.03
2022-08-14T00:13:59.766Z,101237.47
2022-08-14T00:19:25.286Z,101230.63
2022-08-14T00:24:50.519Z,101228.69
2022-08-14T00:30:17.362Z,101215.78
2022-08-14T00:36:39.143Z,101215.78
2022-08-14T00:41:23.884Z,101214.44
2022-08-14T00:46:49.415Z,101194.38
2022-08-14T00:52:18.333Z,101198.84
2022-08-14T00:57:43.360Z,101192.38
2022-08-14T01:03:10.308Z,101181.56
2022-08-14T01:08:51.335Z,101183.47
2022-08-14T01:14:27.553Z,101177.47
2022-08-14T01:20:27.839Z,101170.31
2022-08-14T01:25:55.208Z,101158.38
2022-08-14T01:31:20.501Z,101153.81
2022-08-14T01:36:43.676Z,101157.41
2022-08-14T01:42:09.629Z,101145.03
2022-08-14T01:48:03.085Z,101140.97
2022-08-14T01:53:26.889Z,101130.19
2022-08-14T01:58:58.407Z,101130.78
2022-08-14T02:04:55.580Z,101128.22
2022-08-14T02:10:08.173Z,101118.75
2022-08-14T02:15:40.785Z,101120.66
2022-08-14T02:21:07.661Z,101102.75
2022-08-14T02:26:32.369Z,101111.16
2022-08-14T02:32:30.115Z,101110.81
2022-08-14T02:37:57.169Z,101109.63
2022-08-14T02:43:22.740Z,101108.63
2022-08-14T02:49:02.630Z,101108.16
2022-08-14T02:54:29.178Z,101100.50
2022-08-14T02:59:52.722Z,101099.34
2022-08-14T03:05:17.434Z,101093.16
2022-08-14T03:10:42.026Z,101087.44
2022-08-14T03:16:26.600Z,101088.50
2022-08-14T03:21:52.966Z,101080.63
2022-08-14T03:27:16.496Z,101080.75
2022-08-14T03:32:39.637Z,101068.81
2022-08-14T03:39:11.618Z,101071.47
2022-08-14T03:43:57.498Z,101070.31
2022-08-14T03:49:28.318Z,101074.91
2022-08-14T03:54:53.172Z,101065.00
2022-08-14T04:00:44.244Z,101061.69
2022-08-14T04:06:00.119Z,101058.72
2022-08-14T04:11:24.863Z,101056.38
2022-08-14T04:16:48.102Z,101053.91
2022-08-14T04:22:11.506Z,101055.50
2022-08-14T04:28:01.813Z,101047.41
2022-08-14T04:33:20.952Z,101050.19
2022-08-14T04:39:02.404Z,101041.72
2022-08-14T04:44:36.967Z,101045.03
2022-08-14T04:50:00.369Z,101038.22
2022-08-14T04:55:27.797Z,101038.16
2022-08-14T05:00:53.410Z,101045.41
2022-08-14T05:06:38.161Z,101035.28
2022-08-14T05:13:11.953Z,101026.84
2022-08-14T05:17:53.937Z,101028.44
2022-08-14T05:23:28.575Z,101016.22
2022-08-14T05:28:51.784Z,101023.69
2022-08-14T05:34:16.290Z,101016.31
2022-08-14T05:39:40.770Z,101011.97
2022-08-14T05:45:11.243Z,101007.25
2022-08-14T05:50:38.298Z,101007.41
2022-08-14T05:56:01.631Z,101005.06
2022-08-14T06:01:26.077Z,101001.44
2022-08-14T06:06:55.794Z,100999.94
2022-08-14T06:12:31.717Z,101002.28
2022-08-14T06:18:04.487Z,101007.47
2022-08-14T06:23:28.998Z,100996.84
2022-08-14T06:28:52.811Z,100998.47
2022-08-14T06:35:03.560Z,100995.19
2022-08-14T06:40:01.770Z,100878.91
2022-08-14T06:45:28.285Z,101001.03
2022-08-14T06:50:52.266Z,100983.16
2022-08-14T06:56:16.716Z,100991.50
2022-08-14T07:01:57.534Z,100994.59
2022-08-14T07:07:20.663Z,100980.19
2022-08-14T07:13:01.303Z,100970.16
2022-08-14T07:18:27.369Z,100972.50
2022-08-14T07:23:51.943Z,100956.00
2022-08-14T07:29:17.711Z,100973.69
2022-08-14T07:34:45.925Z,100967.19
2022-08-14T07:40:10.501Z,100963.50
2022-08-14T07:45:36.467Z,100950.31
2022-08-14T07:51:03.826Z,100954.09
2022-08-14T07:56:48.281Z,100951.69
2022-08-14T08:02:18.779Z,100960.34
2022-08-14T08:07:46.741Z,100949.31
2022-08-14T08:13:15.533Z,100958.91
2022-08-14T08:18:40.417Z,100946.91
2022-08-14T08:24:04.432Z,100932.66
2022-08-14T08:29:29.270Z,100926.88
2022-08-14T08:34:56.357Z,100923.03
2022-08-14T08:40:30.954Z,100894.53
2022-08-14T08:45:57.158Z,100914.69
2022-08-14T08:51:33.563Z,100908.16
2022-08-14T08:56:58.036Z,100909.84
2022-08-14T09:02:21.086Z,100911.31
2022-08-14T09:07:45.578Z,100911.56
2022-08-14T09:13:13.091Z,100913.91
2022-08-14T09:18:38.248Z,100907.88
2022-08-14T09:24:28.893Z,100912.25
2022-08-14T09:29:46.008Z,100900.75
2022-08-14T09:35:22.479Z,100885.38
2022-08-14T09:40:52.560Z,100875.31
2022-08-14T09:46:16.979Z,100886.41
2022-08-14T09:51:58.588Z,100883.41
2022-08-14T09:57:29.019Z,100869.13
2022-08-14T10:02:54.026Z,100866.09
2022-08-14T10:08:25.516Z,100858.44
2022-08-14T10:13:54.354Z,100853.78
2022-08-14T10:19:22.647Z,100839.81
2022-08-14T10:24:47.134Z,100804.00
2022-08-14T10:30:22.471Z,100826.25
2022-08-14T10:35:48.103Z,100811.19
2022-08-14T10:41:13.317Z,100813.84
2022-08-14T10:47:37.303Z,100814.28
2022-08-14T10:52:33.979Z,100801.63
2022-08-14T10:57:57.850Z,100804.72
2022-08-14T11:03:26.766Z,100794.59
2022-08-14T11:09:23.476Z,100780.94
2022-08-14T11:14:58.513Z,100777.41
2022-08-14T11:20:26.149Z,100784.00
2022-08-14T11:25:53.406Z,100773.88
2022-08-14T11:31:19.784Z,100766.94
2022-08-14T11:37:03.963Z,100769.63
2022-08-14T11:42:56.921Z,100775.53
2022-08-14T11:49:02.736Z,100759.03
2022-08-14T11:54:06.319Z,100771.16
2022-08-14T11:59:33.540Z,100763.44
2022-08-14T12:04:57.128Z,100762.75
2022-08-14T12:10:26.498Z,100744.56
2022-08-14T12:15:59.820Z,100736.09
2022-08-14T12:21:32.214Z,100737.81
2022-08-14T12:26:57.730Z,100742.53
2022-08-14T12:32:22.190Z,100736.06
2022-08-14T12:37:50.822Z,100709.59
2022-08-14T12:43:15.768Z,100704.66
2022-08-14T12:48:46.386Z,100701.06
2022-08-14T12:54:26.456Z,100690.25
2022-08-14T12:59:52.613Z,100694.84
2022-08-14T13:05:16.281Z,100677.50
2022-08-14T13:10:47.202Z,100658.13
2022-08-14T13:16:20.184Z,100670.00
2022-08-14T13:22:04.793Z,100662.59
2022-08-14T13:27:29.439Z,100659.59
2022-08-14T13:33:00.229Z,100636.97
2022-08-14T13:38:25.453Z,100645.19
2022-08-14T13:43:59.437Z,100636.44
2022-08-14T13:49:25.028Z,100635.72
2022-08-14T13:54:55.717Z,100626.09
2022-08-14T14:00:21.799Z,100621.78
2022-08-14T14:05:57.713Z,100618.56
2022-08-14T14:11:24.246Z,100613.81
2022-08-14T14:16:48.586Z,100616.16
2022-08-14T14:23:00.883Z,100612.31
2022-08-14T14:28:27.037Z,100619.41
2022-08-14T14:33:54.364Z,100614.94
2022-08-14T14:39:25.422Z,100605.97
2022-08-14T14:44:53.106Z,100601.69
2022-08-14T14:50:20.987Z,100601.78
2022-08-14T14:56:08.703Z,100598.94
2022-08-14T15:01:37.092Z,100584.91
2022-08-14T15:07:05.588Z,100582.97
2022-08-14T15:12:56.375Z,100582.25
2022-08-14T15:18:36.964Z,100569.56
2022-08-14T15:24:00.255Z,100583.84
2022-08-14T15:29:25.181Z,100578.25
2022-08-14T15:34:51.175Z,100548.56
2022-08-14T15:40:22.500Z,100570.47
2022-08-14T15:45:47.642Z,100565.56
2022-08-14T15:51:11.086Z,100563.03
2022-08-14T15:56:42.706Z,100532.44
2022-08-14T16:02:09.455Z,100551.69
2022-08-14T16:07:35.174Z,100545.16
2022-08-14T16:13:00.215Z,100546.16
2022-08-14T16:18:26.076Z,100536.59
2022-08-14T16:23:52.997Z,100541.22
2022-08-14T16:29:17.461Z,100533.91
2022-08-14T16:34:48.488Z,100536.06
2022-08-14T16:40:15.851Z,100531.69
2022-08-14T16:45:43.717Z,100534.28
2022-08-14T16:51:08.947Z,100523.34
2022-08-14T16:56:36.392Z,100512.19
2022-08-14T17:02:01.491Z,100507.97
2022-08-14T17:07:29.827Z,100497.53
2022-08-14T17:13:18.183Z,100493.34
2022-08-14T17:18:43.634Z,100491.03
2022-08-14T17:24:57.850Z,100487.38
2022-08-14T17:29:57.688Z,100489.88
2022-08-14T17:35:57.520Z,100486.16
2022-08-14T17:41:27.044Z,100480.78
2022-08-14T17:47:10.123Z,100481.88
2022-08-14T17:52:40.687Z,100472.09
2022-08-14T17:58:20.371Z,100472.00
2022-08-14T18:03:53.222Z,100473.38
2022-08-14T18:09:24.709Z,100474.44
2022-08-14T18:14:52.747Z,100472.16
2022-08-14T18:21:23.785Z,100477.94
2022-08-14T18:26:00.041Z,100477.34
2022-08-14T18:31:43.921Z,100471.97
2022-08-14T18:37:21.066Z,100482.94
2022-08-14T18:42:46.270Z,100478.59
2022-08-14T18:48:51.063Z,100474.53
2022-08-14T18:54:30.002Z,100475.03
2022-08-14T18:59:57.509Z,100472.66
2022-08-14T19:05:57.833Z,100470.47
2022-08-14T19:11:45.410Z,100472.41
2022-08-14T19:17:42.884Z,100476.91
2022-08-14T19:23:42.133Z,100481.03
2022-08-14T19:29:23.506Z,100477.06
2022-08-14T19:34:52.269Z,100466.88
2022-08-14T19:40:33.218Z,100469.56
2022-08-14T19:45:56.842Z,100468.84
2022-08-14T19:51:20.130Z,100464.38
2022-08-14T19:56:47.348Z,100459.53
2022-08-14T20:02:11.286Z,100474.56
2022-08-14T20:07:59.619Z,100470.19
2022-08-14T20:13:32.089Z,100469.84
2022-08-14T20:18:57.341Z,100465.53
2022-08-14T20:24:31.530Z,100463.28
2022-08-14T20:30:34.328Z,100472.03
2022-08-14T20:35:57.949Z,100462.00
2022-08-14T20:41:22.194Z,100468.22
2022-08-14T20:46:47.895Z,100464.16
2022-08-14T20:52:18.851Z,100468.69
2022-08-14T20:58:10.072Z,100459.09
2022-08-14T21:03:56.400Z,100432.88
2022-08-14T21:10:03.461Z,100453.13
2022-08-14T21:15:13.862Z,100446.69
2022-08-14T21:20:39.247Z,100440.06
2022-08-14T21:26:03.693Z,100448.56
2022-08-14T21:31:30.110Z,100442.56
2022-08-14T21:36:55.523Z,100443.72
2022-08-14T21:42:18.661Z,100433.91
2022-08-14T21:47:44.753Z,100435.63
2022-08-14T21:53:09.429Z,100427.19
2022-08-14T21:58:52.300Z,100423.09
2022-08-14T22:04:32.113Z,100426.69
2022-08-14T22:09:59.294Z,100421.63
2022-08-14T22:15:22.915Z,100414.75
2022-08-14T22:20:46.059Z,100411.09
2022-08-14T22:26:10.768Z,100418.75
2022-08-14T22:31:45.907Z,100415.25
2022-08-14T22:37:11.445Z,100404.59
2022-08-14T22:42:37.577Z,100386.28
2022-08-14T22:48:01.117Z,100396.16
2022-08-14T22:53:24.218Z,100403.91
2022-08-14T22:58:54.559Z,100402.66
2022-08-14T23:04:35.649Z,100391.66
2022-08-14T23:10:31.929Z,100394.22
2022-08-14T23:15:46.619Z,100383.69
2022-08-14T23:21:10.800Z,100386.78
2022-08-14T23:26:49.539Z,100375.00
2022-08-14T23:32:19.115Z,100372.00
2022-08-14T23:37:43.801Z,100374.81
2022-08-14T23:43:09.416Z,100361.19
2022-08-14T23:48:34.750Z,100357.09
2022-08-14T23:54:00.302Z,100358.38
2022-08-14T23:59:25.730Z,100353.31
